Etusivu
METAR-TAF:

METAR-TAF

Lentoasemat :

Halmstad, Ruotsi

Leveyspiiri: 56-41N, Pituuspiiri: 012-50E, korkeus merenpinnasta: 30 m

Tämänhetkinen sää

Tämä raportti tehtiin 35 minuuttia sitten, kello 17.20 UTC
Tuuli 5 kn idästä
Lämpötila 1°C
Kosteus 93%
Ilmanpaine 1021 hPa
Näkyvyys: 2500 m
Hajonneita pilviä 1500 ft:n korkeudessa
heikkoa sadetta, lumisadetta

METAR: ESMT 191720Z 08005KT 2500 -RASN BKN015 01/00 Q1021

Aika: 18:55 (17:55 UTC)

Sääennuste

Tämä raportti tehtiin 1 tunti ja 1 minuuttia sitten, kello 16.54 UTC
Ennuste voimassa 19. päivästä klo 18 UTC - 19. päivään klo 21 UTC
Tuuli 8 kn idästä
Näkyvyys: 7000 m
Hajonneita pilviä 2000 ft:n korkeudessa
Ajoittain
19. päivästä klo 18 UTC - 19. päivään klo 21 UTC
Näkyvyys: 0700 m
Hajonneita pilviä 800 ft:n korkeudessa
heikkoa lumisadetta, sadetta

TAF: ESMT 191654Z 1918/1921 09008KT 7000 BKN020 TEMPO 1918/1921 0700 -SNRA BKN008

Säähavainnot ja -ennusteet yli 4000 lentoasemalta (METAR- ja TAF-raportit).

Käytössä olevat sääasemat on merkitty karttaan keltaisilla ja punaisilla pisteillä.

Aseta hiiri pisteen päälle nähdäksesi sääaseman nimen.

Klikkaa sitten nähdäksesi säähavainnot ja -ennusteet.

Kartan vaihtaminen: klikkaa mustalla rastilla varustettuja vihreitä pisteitä, niin voit zoomata sisään; viivalla varustettua vihreää pistettä, niin voit zoomata ulos tai vihreitä nuolia, niin pääset viereisille kartoille.


METAR-TAF: